createdAt,value
2024-03-09T00:04:53.000Z,95271.72
2024-03-09T00:14:59.918Z,95524.09
2024-03-09T00:18:00.640Z,95574.56
2024-03-09T00:24:03.315Z,95157.13
2024-03-09T00:36:44.498Z,95458.66
2024-03-09T00:40:39.500Z,95592.09
2024-03-09T00:44:46.300Z,95533.00
2024-03-09T00:47:15.732Z,95554.72
2024-03-09T00:49:46.075Z,95550.44
2024-03-09T00:52:15.710Z,95556.28
2024-03-09T00:54:45.800Z,95554.47
2024-03-09T00:57:17.386Z,95543.56
2024-03-09T01:00:17.491Z,95546.75
2024-03-09T01:02:54.733Z,95533.50
2024-03-09T01:05:28.204Z,95546.41
2024-03-09T01:07:58.644Z,95542.88
2024-03-09T01:10:30.054Z,95543.63
2024-03-09T01:13:10.248Z,95541.97
2024-03-09T01:15:45.400Z,95539.31
2024-03-09T01:18:21.546Z,95534.25
2024-03-09T01:20:50.811Z,95535.84
2024-03-09T01:23:19.181Z,95535.78
2024-03-09T01:25:55.420Z,95531.44
2024-03-09T01:28:42.546Z,95526.03
2024-03-09T01:42:33.591Z,95444.44
2024-03-09T01:45:10.061Z,95513.56
2024-03-09T01:47:54.152Z,95529.81
2024-03-09T01:50:42.358Z,95523.38
2024-03-09T01:56:27.152Z,95505.94
2024-03-09T01:59:22.114Z,95527.19
2024-03-09T02:02:04.239Z,95531.16
2024-03-09T02:07:47.442Z,95412.09
2024-03-09T02:10:40.677Z,95529.22
2024-03-09T02:13:33.946Z,95527.59
2024-03-09T02:17:06.622Z,95492.28
2024-03-09T02:20:27.413Z,95515.78
2024-03-09T02:23:33.510Z,95114.13
2024-03-09T02:29:32.307Z,95525.25
2024-03-09T02:32:05.752Z,95457.44
2024-03-09T02:34:39.025Z,95516.66
2024-03-09T02:37:17.942Z,95522.91
2024-03-09T02:39:49.166Z,95519.97
2024-03-09T02:42:20.522Z,95515.66
2024-03-09T02:56:34.167Z,95520.53
2024-03-09T02:59:03.816Z,95523.22
2024-03-09T03:01:32.049Z,95525.81
2024-03-09T03:03:59.994Z,95524.69
2024-03-09T03:06:29.937Z,95518.22
2024-03-09T03:09:00.704Z,95523.59
2024-03-09T03:11:29.698Z,95521.50
2024-03-09T03:13:58.368Z,95515.09
2024-03-09T03:16:29.608Z,95517.19
2024-03-09T03:18:58.409Z,95480.13
2024-03-09T03:21:26.997Z,95506.66
2024-03-09T03:23:59.429Z,95505.84
2024-03-09T03:26:32.559Z,95487.56
2024-03-09T03:29:03.746Z,95507.22
2024-03-09T03:31:38.634Z,95509.00
2024-03-09T03:35:08.187Z,95323.84
2024-03-09T03:41:26.067Z,95453.56
2024-03-09T03:43:56.625Z,95530.59
2024-03-09T03:46:27.777Z,95528.00
2024-03-09T03:48:59.295Z,95526.03
2024-03-09T03:51:29.077Z,95520.94
2024-03-09T03:53:59.571Z,95516.41
2024-03-09T03:56:33.967Z,95513.78
2024-03-09T03:59:04.838Z,95517.53
2024-03-09T04:01:34.549Z,95501.38
2024-03-09T04:04:04.720Z,95498.34
2024-03-09T04:06:40.546Z,95498.69
2024-03-09T04:09:14.906Z,95511.06
2024-03-09T04:11:46.403Z,95513.44
2024-03-09T04:14:15.382Z,95506.94
2024-03-09T04:16:54.266Z,95508.97
2024-03-09T04:19:26.757Z,95453.16
2024-03-09T04:21:55.848Z,95462.22
2024-03-09T04:24:34.384Z,95511.97
2024-03-09T04:27:04.258Z,95502.66
2024-03-09T04:29:37.539Z,95510.25
2024-03-09T04:32:08.864Z,95509.16
2024-03-09T04:34:44.215Z,95503.22
2024-03-09T04:37:34.248Z,95504.13
2024-03-09T04:40:20.121Z,95495.69
2024-03-09T04:42:58.884Z,95507.53
2024-03-09T04:49:00.345Z,95512.94
2024-03-09T04:51:30.382Z,95510.47
2024-03-09T04:53:58.488Z,95503.34
2024-03-09T04:56:26.652Z,95500.13
2024-03-09T04:58:54.780Z,95505.75
2024-03-09T05:01:22.931Z,95509.28
2024-03-09T05:03:53.236Z,95505.44
2024-03-09T05:06:23.825Z,95526.59
2024-03-09T05:08:58.565Z,95503.28
2024-03-09T05:11:29.480Z,95513.03
2024-03-09T05:13:58.448Z,95509.75
2024-03-09T05:16:34.365Z,95498.25
2024-03-09T05:19:09.342Z,95518.50
2024-03-09T05:21:43.702Z,95503.16
2024-03-09T05:24:27.333Z,95376.56
2024-03-09T05:27:10.513Z,95497.19
2024-03-09T05:29:41.860Z,95470.22
2024-03-09T05:32:11.906Z,95511.78
2024-03-09T05:45:41.166Z,95499.13
2024-03-09T05:48:12.267Z,95511.19
2024-03-09T05:51:12.055Z,95522.47
2024-03-09T06:09:36.789Z,95531.47
2024-03-09T06:22:53.705Z,95520.50
2024-03-09T06:25:48.432Z,95541.78
2024-03-09T06:28:49.784Z,95410.56
2024-03-09T06:31:45.251Z,95552.47
2024-03-09T06:34:16.806Z,95510.53
2024-03-09T06:37:03.550Z,95311.63
2024-03-09T06:39:54.997Z,95530.66
2024-03-09T06:42:38.099Z,95552.06
2024-03-09T06:45:16.284Z,95553.19
2024-03-09T06:48:00.292Z,95557.06
2024-03-09T06:50:33.463Z,95558.13
2024-03-09T06:53:02.189Z,95538.06
2024-03-09T06:55:32.293Z,95550.59
2024-03-09T06:58:05.177Z,95565.13
2024-03-09T07:00:36.813Z,95564.25
2024-03-09T07:03:21.487Z,95521.19
2024-03-09T07:05:58.273Z,95567.53
2024-03-09T07:08:29.262Z,95545.53
2024-03-09T07:11:06.145Z,95558.41
2024-03-09T07:13:39.089Z,95568.59
2024-03-09T07:16:10.097Z,95579.63
2024-03-09T07:18:50.318Z,95570.28
2024-03-09T07:21:34.637Z,95569.63
2024-03-09T07:24:04.101Z,95567.75
2024-03-09T07:26:32.776Z,95576.59
2024-03-09T07:29:06.779Z,95541.56
2024-03-09T07:32:03.854Z,95557.25
2024-03-09T07:35:02.362Z,95554.56
2024-03-09T07:37:49.630Z,95577.38
2024-03-09T07:47:40.020Z,95580.47
2024-03-09T07:50:17.817Z,95564.69
2024-03-09T07:53:24.450Z,95555.22
2024-03-09T07:56:03.978Z,95565.69
2024-03-09T07:58:33.200Z,95565.91
2024-03-09T08:01:22.275Z,95567.03
2024-03-09T08:04:08.886Z,95576.03
2024-03-09T08:07:05.532Z,95549.56
2024-03-09T08:09:52.114Z,95576.31
2024-03-09T08:12:23.723Z,95542.75
2024-03-09T08:14:55.691Z,95575.72
2024-03-09T08:17:42.792Z,95586.34
2024-03-09T08:20:24.134Z,95582.59
2024-03-09T08:22:57.016Z,95577.97
2024-03-09T08:25:31.166Z,95590.00
2024-03-09T08:28:04.830Z,95588.41
2024-03-09T08:30:44.104Z,95587.72
2024-03-09T08:33:21.996Z,95586.97
2024-03-09T08:35:57.335Z,95589.88
2024-03-09T08:38:26.187Z,95576.16
2024-03-09T08:41:04.092Z,95591.69
2024-03-09T08:43:33.380Z,95574.41
2024-03-09T08:46:08.847Z,95536.88
2024-03-09T08:48:37.425Z,95571.50
2024-03-09T08:51:09.187Z,95567.44
2024-03-09T08:53:37.393Z,95563.50
2024-03-09T08:56:06.231Z,95572.44
2024-03-09T08:58:36.380Z,95574.38
2024-03-09T09:01:07.506Z,95529.75
2024-03-09T09:03:42.213Z,95573.38
2024-03-09T09:06:29.395Z,95572.16
2024-03-09T09:08:59.408Z,95563.28
2024-03-09T09:11:29.791Z,95563.75
2024-03-09T09:13:59.318Z,95560.72
2024-03-09T09:16:28.298Z,95559.06
2024-03-09T09:18:59.803Z,95564.47
2024-03-09T09:21:31.678Z,95558.63
2024-03-09T09:24:03.001Z,95562.75
2024-03-09T09:26:31.553Z,95541.69
2024-03-09T09:29:01.386Z,95559.28
2024-03-09T09:31:33.771Z,95553.13
2024-03-09T09:34:09.936Z,95544.38
2024-03-09T09:36:42.223Z,95500.38
2024-03-09T09:39:15.193Z,95508.09
2024-03-09T09:41:46.474Z,95542.56
2024-03-09T09:44:18.739Z,95528.66
2024-03-09T09:46:46.887Z,95538.91
2024-03-09T09:49:16.573Z,95528.69
2024-03-09T09:51:49.166Z,95560.16
2024-03-09T09:54:17.805Z,95502.22
2024-03-09T09:56:47.759Z,95560.69
2024-03-09T09:59:15.969Z,95505.13
2024-03-09T10:01:44.520Z,95556.88
2024-03-09T10:04:13.234Z,95556.75
2024-03-09T10:06:41.571Z,95558.63
2024-03-09T10:09:11.397Z,95560.81
2024-03-09T10:11:39.726Z,95551.06
2024-03-09T10:14:09.919Z,95553.91
2024-03-09T10:16:41.313Z,95542.91
2024-03-09T10:19:09.992Z,95556.94
2024-03-09T10:21:39.958Z,95542.25
2024-03-09T10:24:10.768Z,95545.97
2024-03-09T10:26:39.024Z,95547.47
2024-03-09T10:29:08.505Z,95545.91
2024-03-09T10:31:40.872Z,95541.22
2024-03-09T10:34:11.446Z,95508.03
2024-03-09T10:36:41.109Z,95534.22
2024-03-09T10:39:21.220Z,95525.03
2024-03-09T10:41:51.054Z,95523.34
2024-03-09T10:44:19.554Z,95518.59
2024-03-09T10:46:49.503Z,95498.81
2024-03-09T10:49:22.469Z,95508.72
2024-03-09T10:51:54.173Z,95458.97
2024-03-09T10:54:32.654Z,95504.22
2024-03-09T10:57:04.292Z,95509.59
2024-03-09T10:59:32.881Z,95508.63
2024-03-09T11:02:03.600Z,95511.56
2024-03-09T11:04:33.159Z,95491.31
2024-03-09T11:07:01.760Z,95490.34
2024-03-09T11:09:33.038Z,95494.13
2024-03-09T11:12:03.028Z,95429.94
2024-03-09T11:14:34.456Z,95489.78
2024-03-09T11:17:06.607Z,95478.50
2024-03-09T11:19:34.929Z,95483.59
2024-03-09T11:22:05.124Z,95481.50
2024-03-09T11:24:41.438Z,95474.97
2024-03-09T11:27:10.129Z,95461.31
2024-03-09T11:29:41.583Z,95468.31
2024-03-09T11:32:13.744Z,95446.25
2024-03-09T11:34:43.015Z,95459.31
2024-03-09T11:37:14.733Z,95445.16
2024-03-09T11:39:48.334Z,95456.38
2024-03-09T11:42:19.831Z,95450.19
2024-03-09T11:44:47.960Z,95446.94
2024-03-09T11:47:17.932Z,95367.69
2024-03-09T11:49:48.375Z,95412.56
2024-03-09T11:52:16.742Z,95432.25
2024-03-09T11:54:50.709Z,95410.47
2024-03-09T11:57:18.863Z,95425.25
2024-03-09T11:59:47.056Z,95420.63
2024-03-09T12:02:16.710Z,95407.50
2024-03-09T12:04:48.043Z,95418.63
2024-03-09T12:07:17.783Z,95413.88
2024-03-09T12:09:50.345Z,95407.25
2024-03-09T12:12:18.629Z,95409.50
2024-03-09T12:14:48.073Z,95401.69
2024-03-09T12:17:17.444Z,95398.38
2024-03-09T12:19:49.118Z,95396.97
2024-03-09T12:22:20.889Z,95394.69
2024-03-09T12:24:50.826Z,95388.25
2024-03-09T12:27:21.431Z,95382.00
2024-03-09T12:29:50.030Z,95366.38
2024-03-09T12:32:21.183Z,95376.88
2024-03-09T12:34:51.549Z,95378.34
2024-03-09T12:37:26.761Z,95362.78
2024-03-09T12:40:12.801Z,95379.31
2024-03-09T12:42:45.168Z,95366.59
2024-03-09T12:45:23.724Z,95371.03
2024-03-09T12:47:54.986Z,95357.44
2024-03-09T12:50:25.377Z,95366.91
2024-03-09T12:52:54.463Z,95369.59
2024-03-09T12:55:26.501Z,95368.41
2024-03-09T12:57:55.638Z,95306.63
2024-03-09T13:00:26.292Z,95358.38
2024-03-09T13:02:54.522Z,95367.03
2024-03-09T13:05:24.161Z,95361.22
2024-03-09T13:07:53.982Z,95356.72
2024-03-09T13:10:26.274Z,95369.06
2024-03-09T13:12:54.542Z,95358.78
2024-03-09T13:15:26.637Z,95358.44
2024-03-09T13:17:57.953Z,95354.63
2024-03-09T13:20:31.789Z,95367.31
2024-03-09T13:23:03.151Z,95358.41
2024-03-09T13:25:35.920Z,95346.53
2024-03-09T13:28:08.296Z,95343.34
2024-03-09T13:30:40.402Z,95214.84
2024-03-09T13:33:11.454Z,95338.31
2024-03-09T13:35:39.675Z,95314.31
2024-03-09T13:38:07.811Z,95331.28
2024-03-09T13:40:37.418Z,95335.94
2024-03-09T13:43:06.705Z,95340.00
2024-03-09T13:45:35.121Z,95336.06
2024-03-09T13:48:09.557Z,95327.69
2024-03-09T13:50:42.739Z,95237.00
2024-03-09T13:53:12.278Z,95319.97
2024-03-09T13:55:41.975Z,95319.63
2024-03-09T13:58:10.364Z,95318.94
2024-03-09T14:00:39.281Z,95323.09
2024-03-09T14:03:08.799Z,95302.72
2024-03-09T14:05:39.740Z,95333.59
2024-03-09T14:08:09.839Z,95332.38
2024-03-09T14:10:40.114Z,95326.03
2024-03-09T14:13:10.375Z,95329.25
2024-03-09T14:15:42.978Z,95325.97
2024-03-09T14:18:17.290Z,95321.63
2024-03-09T14:20:48.113Z,95324.22
2024-03-09T14:23:23.594Z,95314.31
2024-03-09T14:25:54.134Z,95299.94
2024-03-09T14:28:25.657Z,95317.91
2024-03-09T14:31:01.790Z,95317.78
2024-03-09T14:33:30.544Z,95290.03
2024-03-09T14:35:59.132Z,95316.81
2024-03-09T14:38:27.747Z,95318.19
2024-03-09T14:40:56.077Z,95172.53
2024-03-09T14:43:27.492Z,95312.84
2024-03-09T14:45:56.062Z,95293.84
2024-03-09T14:48:28.957Z,95305.66
2024-03-09T14:51:11.118Z,95316.25
2024-03-09T14:53:40.994Z,95314.34
2024-03-09T14:56:16.898Z,95294.69
2024-03-09T14:59:09.287Z,95293.53
2024-03-09T15:01:40.833Z,95302.66
2024-03-09T15:11:01.810Z,95318.31
2024-03-09T15:17:18.140Z,95303.97
2024-03-09T15:25:32.295Z,95307.69
2024-03-09T15:28:13.616Z,95306.25
2024-03-09T15:31:25.812Z,95313.31
2024-03-09T15:34:21.428Z,95255.53
2024-03-09T15:36:57.075Z,95318.50
2024-03-09T15:39:33.944Z,95323.44
2024-03-09T15:42:20.542Z,95316.66
2024-03-09T15:45:02.935Z,95297.84
2024-03-09T15:47:41.149Z,95319.56
2024-03-09T15:50:29.737Z,95286.88
2024-03-09T15:53:00.865Z,95284.78
2024-03-09T16:04:30.706Z,95325.41
2024-03-09T16:07:39.963Z,95284.16
2024-03-09T16:10:15.008Z,95218.09
2024-03-09T16:12:54.725Z,95135.84
2024-03-09T16:16:24.747Z,95313.47
2024-03-09T16:19:02.730Z,95199.06
2024-03-09T16:21:45.922Z,95320.72
2024-03-09T16:24:40.606Z,95253.47
2024-03-09T16:27:41.600Z,95257.09
2024-03-09T16:33:31.025Z,95332.50
2024-03-09T16:36:26.737Z,95322.81
2024-03-09T16:39:14.745Z,95320.34
2024-03-09T16:45:01.504Z,95220.34
2024-03-09T16:50:42.902Z,95351.88
2024-03-09T16:53:35.473Z,95328.78
2024-03-09T16:56:19.502Z,95357.81
2024-03-09T16:59:18.141Z,95365.53
2024-03-09T17:02:00.491Z,95382.06
2024-03-09T17:05:05.333Z,95348.75
2024-03-09T17:14:20.713Z,95371.63
2024-03-09T17:17:04.586Z,95320.63
2024-03-09T17:19:47.994Z,95338.63
2024-03-09T17:26:21.028Z,95390.06
2024-03-09T17:29:01.656Z,95379.31
2024-03-09T17:31:53.352Z,95391.13
2024-03-09T17:34:22.358Z,95398.91
2024-03-09T17:37:00.518Z,95399.53
2024-03-09T17:39:49.826Z,95385.97
2024-03-09T17:42:19.512Z,95403.13
2024-03-09T17:44:56.436Z,95342.00
2024-03-09T17:47:43.907Z,95396.81
2024-03-09T17:50:18.839Z,95408.28
2024-03-09T17:52:56.554Z,95411.09
2024-03-09T17:55:45.900Z,95405.38
2024-03-09T17:58:18.852Z,95404.94
2024-03-09T18:01:01.405Z,95411.97
2024-03-09T18:03:45.960Z,95419.31
2024-03-09T18:06:22.990Z,95388.66
2024-03-09T18:09:05.052Z,95414.34
2024-03-09T18:11:35.724Z,95418.78
2024-03-09T18:14:14.924Z,95376.78
2024-03-09T18:16:54.431Z,95431.78
2024-03-09T18:19:33.519Z,95431.84
2024-03-09T18:22:08.688Z,95421.25
2024-03-09T18:24:45.740Z,95428.38
2024-03-09T18:27:21.668Z,95422.31
2024-03-09T18:29:52.397Z,95446.59
2024-03-09T18:32:30.414Z,95437.59
2024-03-09T18:35:10.108Z,95399.19
2024-03-09T18:37:39.264Z,95429.97
2024-03-09T18:40:15.541Z,95444.88
2024-03-09T18:42:58.104Z,95383.16
2024-03-09T18:45:57.187Z,95441.28
2024-03-09T18:48:40.171Z,95437.88
2024-03-09T18:51:41.268Z,95444.38
2024-03-09T18:54:12.395Z,95432.50
2024-03-09T18:56:42.731Z,95430.41
2024-03-09T18:59:12.485Z,95429.09
2024-03-09T19:01:40.867Z,95430.41
2024-03-09T19:04:17.936Z,95425.06
2024-03-09T19:06:53.352Z,95434.16
2024-03-09T19:09:30.946Z,95427.88
2024-03-09T19:12:10.780Z,95418.13
2024-03-09T19:14:47.762Z,95448.69
2024-03-09T19:17:19.476Z,95441.72
2024-03-09T19:19:49.932Z,95448.19
2024-03-09T19:22:20.816Z,95451.91
2024-03-09T19:24:49.324Z,95448.03
2024-03-09T19:27:19.030Z,95458.13
2024-03-09T19:29:56.712Z,95460.50
2024-03-09T19:32:35.147Z,95462.09
2024-03-09T19:35:11.697Z,95455.16
2024-03-09T19:37:47.829Z,95431.28
2024-03-09T19:40:18.497Z,95403.16
2024-03-09T19:42:48.146Z,95476.53
2024-03-09T19:45:19.652Z,95344.44
2024-03-09T19:47:50.315Z,95465.34
2024-03-09T19:50:22.043Z,95462.47
2024-03-09T19:52:53.507Z,95478.13
2024-03-09T19:55:27.210Z,95473.84
2024-03-09T19:57:56.687Z,95484.03
2024-03-09T20:00:30.014Z,95469.63
2024-03-09T20:03:00.741Z,95480.28
2024-03-09T20:05:34.413Z,95473.34
2024-03-09T20:08:18.952Z,95467.22
2024-03-09T20:11:09.044Z,95446.88
2024-03-09T20:13:56.975Z,95461.38
2024-03-09T20:16:34.097Z,95468.09
2024-03-09T20:22:21.418Z,95485.22
2024-03-09T20:25:09.271Z,95402.63
2024-03-09T20:27:48.282Z,95496.38
2024-03-09T20:30:27.219Z,95498.25
2024-03-09T20:32:57.348Z,95489.50
2024-03-09T20:35:34.270Z,95495.09
2024-03-09T20:38:16.935Z,95477.97
2024-03-09T20:41:16.679Z,95497.81
2024-03-09T20:43:57.291Z,95484.41
2024-03-09T20:46:35.693Z,95494.09
2024-03-09T20:49:18.709Z,95495.94
2024-03-09T20:54:46.647Z,95477.25
2024-03-09T20:57:24.733Z,95479.75
2024-03-09T20:59:58.182Z,95090.78
2024-03-09T21:02:36.542Z,95477.25
2024-03-09T21:05:19.212Z,95432.22
2024-03-09T21:07:59.989Z,95469.75
2024-03-09T21:11:20.899Z,95474.03
2024-03-09T21:14:03.008Z,95475.91
2024-03-09T21:19:30.441Z,95384.59
2024-03-09T21:22:00.874Z,95482.53
2024-03-09T21:24:30.663Z,95476.69
2024-03-09T21:27:02.966Z,95466.66
2024-03-09T21:29:51.348Z,95475.09
2024-03-09T21:32:37.089Z,95403.06
2024-03-09T21:35:18.291Z,95494.72
2024-03-09T21:38:21.707Z,95473.84
2024-03-09T21:44:16.905Z,95486.63
2024-03-09T21:46:49.500Z,95490.84
2024-03-09T21:49:18.754Z,95486.50
2024-03-09T21:51:55.391Z,95484.13
2024-03-09T21:54:26.030Z,95496.88
2024-03-09T21:56:54.291Z,95484.13
2024-03-09T21:59:26.544Z,95485.94
2024-03-09T22:02:00.223Z,95496.50
2024-03-09T22:04:44.657Z,95457.25
2024-03-09T22:07:44.482Z,95485.13
2024-03-09T22:10:29.040Z,95482.22
2024-03-09T22:12:59.316Z,95488.06
2024-03-09T22:15:31.973Z,95493.84
2024-03-09T22:18:30.586Z,95486.19
2024-03-09T22:21:20.580Z,95491.09
2024-03-09T22:23:58.122Z,95497.47
2024-03-09T22:26:51.682Z,95496.88
2024-03-09T22:29:33.550Z,95497.47
2024-03-09T22:32:10.929Z,95495.31
2024-03-09T22:37:43.072Z,95473.50
2024-03-09T22:40:28.914Z,95495.16
2024-03-09T22:43:13.831Z,95486.53
2024-03-09T22:45:54.243Z,95487.41
2024-03-09T22:48:38.044Z,95492.38
2024-03-09T22:54:27.740Z,95478.59
2024-03-09T22:57:19.266Z,95483.84
2024-03-09T23:02:36.781Z,95442.66
2024-03-09T23:05:26.035Z,95488.66
2024-03-09T23:08:14.724Z,95485.78
2024-03-09T23:10:58.010Z,95463.06
2024-03-09T23:13:32.581Z,95476.66
2024-03-09T23:16:15.592Z,95485.41
2024-03-09T23:18:47.110Z,95476.47
2024-03-09T23:21:30.720Z,95476.59
2024-03-09T23:24:17.103Z,95482.34
2024-03-09T23:29:21.264Z,95471.72
2024-03-09T23:32:04.797Z,95469.38
2024-03-09T23:34:40.098Z,95482.97
2024-03-09T23:37:37.100Z,95448.22
2024-03-09T23:43:22.246Z,95486.13
2024-03-09T23:49:08.610Z,95478.69
2024-03-09T23:55:25.333Z,95506.16
2024-03-09T23:58:21.116Z,95494.66
